Time;durP1;ratioP1;P1;durP2;ratioP2;P2;SDS_P1;SDS_P2;PMS_P1;PMS_P2;Temp;Humidity;BMP_temperature;BMP_pressure;BME280_temperature;BME280_humidity;BME280_pressure;Samples;Min_cycle;Max_cycle;Signal;HPM_P1;HPM_P2
2020/12/15 00:00:28;;;;;;;97.80;46.65;;;;;;;-1.17;84.01;100247.84;2123136;82;21098;-74
2020/12/15 00:03:30;;;;;;;103.67;49.65;;;;;;;-1.19;84.06;100254.06;2120055;82;21101;-75
2020/12/15 00:06:35;;;;;;;103.58;48.10;;;;;;;-1.25;84.14;100255.73;2117729;82;21153;-73
2020/12/15 00:09:36;;;;;;;103.10;47.13;;;;;;;-1.28;84.24;100258.05;2117335;82;21113;-73
2020/12/15 00:12:37;;;;;;;102.65;47.65;;;;;;;-1.29;84.40;100255.55;2126088;82;21086;-73
2020/12/15 00:15:39;;;;;;;110.37;48.87;;;;;;;-1.30;84.39;100255.15;2115672;82;21149;-74
2020/12/15 00:18:40;;;;;;;104.50;50.38;;;;;;;-1.32;84.38;100260.90;2121288;82;21169;-73
2020/12/15 00:21:43;;;;;;;107.25;49.42;;;;;;;-1.31;84.47;100259.52;2100519;82;21132;-73
2020/12/15 00:24:45;;;;;;;103.35;49.50;;;;;;;-1.29;84.59;100260.28;2120820;82;21639;-73
2020/12/15 00:27:47;;;;;;;106.85;49.55;;;;;;;-1.28;84.60;100258.52;2122205;81;21188;-73
2020/12/15 00:30:49;;;;;;;104.63;47.67;;;;;;;-1.28;84.63;100253.30;2113846;82;21634;-73
2020/12/15 00:33:51;;;;;;;98.55;45.40;;;;;;;-1.26;84.61;100255.37;2117840;82;21589;-75
2020/12/15 00:36:52;;;;;;;109.03;49.58;;;;;;;-1.26;84.69;100257.50;2118526;82;22656;-75
2020/12/15 00:39:53;;;;;;;107.47;48.90;;;;;;;-1.22;84.75;100262.06;2118991;82;21205;-73
2020/12/15 00:42:55;;;;;;;93.20;45.90;;;;;;;-1.19;84.66;100255.38;2122201;82;21142;-74
2020/12/15 00:45:56;;;;;;;110.22;50.83;;;;;;;-1.17;84.68;100253.52;2116870;82;21143;-74
2020/12/15 00:48:58;;;;;;;105.43;47.65;;;;;;;-1.16;84.69;100261.70;2125919;82;21177;-75
2020/12/15 00:51:59;;;;;;;104.58;50.75;;;;;;;-1.16;84.65;100260.40;2122732;82;21181;-75
2020/12/15 00:55:00;;;;;;;105.32;49.00;;;;;;;-1.20;84.61;100256.31;2110814;82;21148;-73
2020/12/15 00:58:02;;;;;;;107.37;48.40;;;;;;;-1.25;84.62;100253.13;2076268;84;21133;-72
2020/12/15 01:01:06;;;;;;;104.45;49.10;;;;;;;-1.28;84.68;100262.42;2084933;83;21200;-73
2020/12/15 01:04:07;;;;;;;98.27;48.98;;;;;;;-1.31;84.65;100263.89;2126589;82;21083;-73
2020/12/15 01:07:09;;;;;;;106.47;51.80;;;;;;;-1.35;84.69;100269.75;2109030;82;21153;-73
2020/12/15 01:10:10;;;;;;;93.92;45.20;;;;;;;-1.38;84.82;100264.69;2098106;82;21128;-73
2020/12/15 01:13:13;;;;;;;114.95;50.12;;;;;;;-1.37;84.86;100264.61;2118064;82;21098;-73
2020/12/15 01:16:16;;;;;;;108.47;50.83;;;;;;;-1.38;84.86;100255.58;2112432;82;21156;-78
2020/12/15 01:19:19;;;;;;;110.08;50.12;;;;;;;-1.39;84.87;100253.91;2126842;82;21153;-73
2020/12/15 01:22:21;;;;;;;104.63;47.45;;;;;;;-1.39;84.97;100256.05;2122628;82;21530;-73
2020/12/15 01:25:24;;;;;;;109.17;50.03;;;;;;;-1.41;84.92;100264.42;2127618;82;22344;-77
2020/12/15 01:28:31;;;;;;;100.70;48.70;;;;;;;-1.42;84.95;100258.83;2124653;82;21185;-73
2020/12/15 01:31:32;;;;;;;103.10;50.05;;;;;;;-1.37;85.03;100262.01;2107165;82;21189;-73
2020/12/15 01:34:36;;;;;;;115.25;50.95;;;;;;;-1.34;85.08;100266.67;2123306;82;21209;-73
2020/12/15 01:37:39;;;;;;;102.00;49.75;;;;;;;-1.32;85.10;100260.45;2129626;82;21100;-73
2020/12/15 01:40:51;;;;;;;105.07;46.85;;;;;;;-1.29;85.13;100260.75;2127146;81;21153;-73
2020/12/15 01:43:56;;;;;;;101.58;48.63;;;;;;;-1.28;85.18;100259.34;2127662;82;21620;-73
2020/12/15 01:46:58;;;;;;;109.03;51.70;;;;;;;-1.27;85.17;100261.01;2129272;82;21111;-73
2020/12/15 01:50:02;;;;;;;103.62;46.70;;;;;;;-1.24;85.23;100252.19;2126456;82;21310;-73
2020/12/15 01:53:09;;;;;;;104.50;49.80;;;;;;;-1.25;85.17;100254.42;2122906;82;21126;-74
2020/12/15 01:56:11;;;;;;;107.45;49.53;;;;;;;-1.24;85.18;100253.48;2118147;82;21159;-73
2020/12/15 01:59:15;;;;;;;103.58;50.75;;;;;;;-1.22;85.25;100247.27;2124094;82;21179;-73
2020/12/15 02:02:20;;;;;;;113.40;53.90;;;;;;;-1.23;85.33;100236.48;2128997;82;21185;-73
2020/12/15 02:05:23;;;;;;;110.10;47.10;;;;;;;-1.22;85.35;100236.02;2101386;82;21251;-73
2020/12/15 02:08:25;;;;;;;102.45;49.70;;;;;;;-1.23;85.42;100230.45;2104788;82;21204;-77
2020/12/15 02:11:29;;;;;;;108.37;51.75;;;;;;;-1.21;85.46;100227.27;2130493;82;21126;-75
2020/12/15 02:14:31;;;;;;;106.15;48.70;;;;;;;-1.19;85.53;100224.95;2125960;82;21178;-73
2020/12/15 02:17:34;;;;;;;113.37;51.80;;;;;;;-1.15;85.57;100224.34;2131954;82;21555;-72
2020/12/15 02:20:46;;;;;;;99.77;45.67;;;;;;;-1.16;85.54;100226.55;2131009;82;21115;-77
2020/12/15 02:23:53;;;;;;;111.35;50.58;;;;;;;-1.13;85.62;100230.27;2120584;82;21208;-73
2020/12/15 02:26:56;;;;;;;109.48;49.08;;;;;;;-1.10;85.65;100224.88;2126015;82;21572;-73
2020/12/15 02:29:59;;;;;;;103.07;45.83;;;;;;;-1.06;85.66;100221.19;2118574;82;21607;-73
2020/12/15 02:33:02;;;;;;;108.65;50.10;;;;;;;-1.04;85.69;100219.34;2092226;82;21109;-75
2020/12/15 02:36:05;;;;;;;99.95;46.92;;;;;;;-0.99;85.73;100225.09;2111770;81;21171;-74
2020/12/15 02:39:12;;;;;;;103.47;48.42;;;;;;;-0.96;85.66;100221.47;2119491;82;21151;-73
2020/12/15 02:42:15;;;;;;;97.22;47.35;;;;;;;-0.98;85.63;100228.09;2125989;82;21138;-75
2020/12/15 02:45:17;;;;;;;92.90;43.85;;;;;;;-0.93;85.58;100224.75;2126278;82;21603;-76
2020/12/15 02:48:19;;;;;;;97.17;46.20;;;;;;;-0.88;85.57;100220.55;2120665;82;21194;-74
2020/12/15 02:51:23;;;;;;;96.78;46.13;;;;;;;-0.86;85.52;100230.42;2068560;83;21137;-74
2020/12/15 02:54:42;;;;;;;108.10;48.23;;;;;;;-0.85;85.61;100223.45;2124893;82;21259;-72
2020/12/15 02:57:50;;;;;;;94.70;48.23;;;;;;;-0.84;85.59;100220.76;2124158;82;21638;-72
2020/12/15 03:00:52;;;;;;;90.95;41.88;;;;;;;-0.83;85.59;100216.37;2107295;82;21224;-72
2020/12/15 03:03:55;;;;;;;99.32;45.90;;;;;;;-0.84;85.59;100212.11;2135704;81;21235;-72
2020/12/15 03:06:58;;;;;;;86.00;43.83;;;;;;;-0.82;85.60;100215.44;2125699;82;21135;-73
2020/12/15 03:10:07;;;;;;;97.45;46.45;;;;;;;-0.83;85.62;100205.95;2130735;82;21129;-72
2020/12/15 03:13:10;;;;;;;95.53;43.75;;;;;;;-0.87;85.55;100212.27;2131967;82;21157;-73
2020/12/15 03:16:12;;;;;;;92.25;44.13;;;;;;;-0.88;85.60;100213.20;2129607;81;21175;-73
2020/12/15 03:19:13;;;;;;;81.75;40.80;;;;;;;-0.88;85.54;100203.62;2129817;82;21204;-73
2020/12/15 03:22:15;;;;;;;73.33;32.13;;;;;;;-0.88;85.56;100192.36;2116205;82;21515;-73
2020/12/15 03:25:20;;;;;;;85.83;43.02;;;;;;;-0.91;85.61;100203.34;2109150;82;21126;-74
2020/12/15 03:28:23;;;;;;;83.92;40.65;;;;;;;-0.87;85.73;100206.62;2118620;82;21181;-74
2020/12/15 03:31:26;;;;;;;94.42;42.83;;;;;;;-0.88;85.68;100210.60;2117676;82;21284;-77
2020/12/15 03:34:28;;;;;;;82.82;39.45;;;;;;;-0.83;85.72;100221.59;2119842;82;21110;-74
2020/12/15 03:37:30;;;;;;;83.58;40.38;;;;;;;-0.81;85.82;100222.34;2115420;82;21529;-74
2020/12/15 03:40:32;;;;;;;78.67;39.15;;;;;;;-0.81;85.84;100215.84;2123146;82;21162;-73
2020/12/15 03:43:52;;;;;;;75.45;37.93;;;;;;;-0.80;85.93;100227.45;2074700;84;21100;-73
2020/12/15 03:46:55;;;;;;;81.95;38.10;;;;;;;-0.78;85.90;100217.78;2127003;82;22035;-73
2020/12/15 03:49:57;;;;;;;74.58;37.65;;;;;;;-0.76;85.99;100221.58;2114103;82;21121;-78
2020/12/15 03:52:58;;;;;;;72.15;34.53;;;;;;;-0.77;85.88;100216.01;2115007;82;21560;-74
2020/12/15 03:56:01;;;;;;;63.10;31.68;;;;;;;-0.73;85.93;100225.34;2122310;82;21493;-73
2020/12/15 03:59:03;;;;;;;65.75;33.63;;;;;;;-0.70;85.91;100219.94;2113027;82;21224;-73
2020/12/15 04:02:06;;;;;;;67.90;34.85;;;;;;;-0.66;86.01;100213.59;2119864;82;21165;-73
2020/12/15 04:05:07;;;;;;;68.83;33.75;;;;;;;-0.65;85.91;100230.89;2120522;82;21537;-76
2020/12/15 04:08:08;;;;;;;63.45;32.25;;;;;;;-0.64;85.87;100225.25;2120395;82;21122;-73
2020/12/15 04:11:10;;;;;;;61.58;30.80;;;;;;;-0.64;85.86;100218.73;2100099;82;21539;-73
2020/12/15 04:14:13;;;;;;;61.65;31.90;;;;;;;-0.66;85.84;100212.30;2114816;82;21580;-73
2020/12/15 04:17:15;;;;;;;59.58;28.62;;;;;;;-0.66;85.88;100210.16;2118943;82;21165;-73
2020/12/15 04:20:19;;;;;;;58.45;28.12;;;;;;;-0.64;86.02;100210.44;2119312;82;21471;-73
2020/12/15 04:23:21;;;;;;;60.28;28.47;;;;;;;-0.64;85.95;100205.70;2122522;82;21205;-77
2020/12/15 04:26:23;;;;;;;50.38;25.57;;;;;;;-0.64;86.07;100205.70;2129697;82;21148;-75
2020/12/15 04:29:26;;;;;;;54.27;26.55;;;;;;;-0.65;86.08;100204.00;2130679;82;21094;-72
2020/12/15 04:32:35;;;;;;;50.15;25.75;;;;;;;-0.64;86.08;100205.70;2128391;82;21133;-72
2020/12/15 04:35:39;;;;;;;55.73;26.65;;;;;;;-0.64;85.97;100210.91;2130192;82;21121;-73
2020/12/15 04:38:40;;;;;;;53.87;26.50;;;;;;;-0.64;85.90;100209.14;2131009;82;21173;-72
2020/12/15 04:41:44;;;;;;;51.33;24.27;;;;;;;-0.64;85.94;100208.30;2128678;82;21141;-75
2020/12/15 04:44:46;;;;;;;48.38;25.60;;;;;;;-0.65;85.99;100204.00;2126579;82;21648;-72
2020/12/15 04:47:54;;;;;;;45.28;23.25;;;;;;;-0.68;86.04;100194.59;2102825;82;21592;-72
2020/12/15 04:50:59;;;;;;;45.23;24.05;;;;;;;-0.67;86.16;100192.38;2127010;82;21159;-72
2020/12/15 04:54:04;;;;;;;44.63;22.82;;;;;;;-0.67;86.23;100193.69;2128773;82;21581;-76
2020/12/15 04:57:13;;;;;;;45.03;23.80;;;;;;;-0.64;86.25;100192.67;2125618;82;21639;-72
2020/12/15 05:00:19;;;;;;;44.13;23.77;;;;;;;-0.62;86.28;100198.16;2129587;82;21164;-72
2020/12/15 05:03:32;;;;;;;42.45;22.13;;;;;;;-0.60;86.29;100191.53;2110881;82;21205;-72
2020/12/15 05:06:38;;;;;;;47.53;21.65;;;;;;;-0.61;86.36;100191.17;2126154;82;21169;-72
2020/12/15 05:09:39;;;;;;;40.70;20.50;;;;;;;-0.60;86.35;100198.05;2125496;82;21169;-76
2020/12/15 05:12:42;;;;;;;36.00;19.52;;;;;;;-0.59;86.46;100204.48;2130218;82;21140;-74
2020/12/15 05:15:44;;;;;;;39.70;20.80;;;;;;;-0.57;86.42;100196.09;2131727;82;21554;-72
2020/12/15 05:19:04;;;;;;;40.83;21.17;;;;;;;-0.56;86.37;100190.44;2123003;82;21572;-73
2020/12/15 05:22:08;;;;;;;40.52;21.02;;;;;;;-0.56;86.40;100187.83;2126843;82;21473;-76
2020/12/15 05:25:35;;;;;;;35.45;18.30;;;;;;;-0.58;86.45;100185.30;2119736;81;21117;-76
2020/12/15 05:28:38;;;;;;;35.43;19.05;;;;;;;-0.57;86.48;100188.73;2118196;82;21123;-72
2020/12/15 05:31:40;;;;;;;36.85;19.98;;;;;;;-0.56;86.43;100194.34;2116370;82;21137;-72
2020/12/15 05:34:52;;;;;;;31.57;18.35;;;;;;;-0.55;86.60;100196.01;2035297;82;21171;-75
2020/12/15 05:38:14;;;;;;;35.15;19.02;;;;;;;-0.53;86.43;100197.59;2065686;84;21168;-73
2020/12/15 05:41:17;;;;;;;38.08;19.75;;;;;;;-0.51;86.51;100193.13;2059483;84;21204;-75
2020/12/15 05:44:30;;;;;;;35.38;19.10;;;;;;;-0.50;86.43;100189.58;2115142;82;21168;-76
2020/12/15 05:47:33;;;;;;;43.48;20.90;;;;;;;-0.51;86.32;100185.31;2118732;82;22374;-77
2020/12/15 05:50:38;;;;;;;32.03;17.05;;;;;;;-0.51;86.43;100191.83;2116408;82;21183;-79
2020/12/15 05:53:40;;;;;;;31.90;17.37;;;;;;;-0.49;86.46;100179.98;2117182;82;21605;-77
2020/12/15 05:56:42;;;;;;;36.08;18.87;;;;;;;-0.48;86.42;100185.56;2117090;82;21166;-73
2020/12/15 05:59:43;;;;;;;31.70;16.80;;;;;;;-0.45;86.36;100181.48;2118755;82;21077;-73
2020/12/15 06:02:57;;;;;;;35.28;18.77;;;;;;;-0.43;86.37;100181.38;2116488;82;21149;-73
2020/12/15 06:06:03;;;;;;;33.25;18.52;;;;;;;-0.44;86.29;100179.72;2067870;83;21134;-73
2020/12/15 06:09:07;;;;;;;31.10;17.57;;;;;;;-0.47;86.37;100176.83;2118660;82;21158;-73
2020/12/15 06:12:09;;;;;;;28.95;16.23;;;;;;;-0.47;86.29;100175.52;2116607;82;21125;-73
2020/12/15 06:15:11;;;;;;;35.03;18.23;;;;;;;-0.47;86.36;100172.92;2116698;82;21162;-73
2020/12/15 06:18:12;;;;;;;30.60;16.50;;;;;;;-0.44;86.34;100181.02;2121461;82;21074;-73
2020/12/15 06:21:15;;;;;;;32.13;18.95;;;;;;;-0.47;86.36;100172.45;2119364;82;21557;-74
2020/12/15 06:24:25;;;;;;;30.70;16.32;;;;;;;-0.47;86.21;100176.36;2130649;82;21097;-73
2020/12/15 06:27:34;;;;;;;28.62;16.50;;;;;;;-0.48;86.16;100182.52;2139419;82;21181;-73
2020/12/15 06:30:43;;;;;;;29.37;15.35;;;;;;;-0.48;86.08;100185.56;2136730;82;21133;-73
2020/12/15 06:33:45;;;;;;;28.07;15.28;;;;;;;-0.44;86.06;100196.66;2134196;82;21208;-73
2020/12/15 06:36:48;;;;;;;31.30;17.77;;;;;;;-0.41;86.14;100202.52;2137587;82;21114;-73
2020/12/15 06:40:01;;;;;;;29.18;15.80;;;;;;;-0.38;86.08;100205.40;2138139;82;21160;-75
2020/12/15 06:43:02;;;;;;;27.65;15.75;;;;;;;-0.40;85.94;100203.34;2141633;82;21225;-76
2020/12/15 06:46:08;;;;;;;27.93;14.65;;;;;;;-0.43;85.92;100200.45;2132479;82;21583;-72
2020/12/15 06:49:10;;;;;;;27.32;15.30;;;;;;;-0.43;85.89;100200.92;2129614;82;21178;-72
2020/12/15 06:52:12;;;;;;;26.12;13.35;;;;;;;-0.47;85.86;100202.42;2105745;82;21962;-77
2020/12/15 06:55:14;;;;;;;25.27;15.15;;;;;;;-0.42;85.94;100201.28;2137623;82;21627;-76
2020/12/15 06:58:24;;;;;;;28.15;15.90;;;;;;;-0.47;85.91;100201.12;2135842;82;21681;-79
2020/12/15 07:01:26;;;;;;;31.33;16.82;;;;;;;-0.44;85.98;100203.17;2135887;82;21161;-79
2020/12/15 07:04:27;;;;;;;34.67;17.10;;;;;;;-0.37;86.03;100201.84;2095963;82;21477;-77
2020/12/15 07:07:29;;;;;;;27.02;15.25;;;;;;;-0.33;85.96;100191.62;2097101;82;21203;-78
2020/12/15 07:10:31;;;;;;;24.87;14.47;;;;;;;-0.30;85.85;100204.46;2132615;82;21129;-77
2020/12/15 07:13:32;;;;;;;29.92;15.95;;;;;;;-0.25;85.87;100214.98;2137770;82;21148;-78
2020/12/15 07:16:35;;;;;;;31.57;16.93;;;;;;;-0.24;85.76;100220.55;2134434;82;21181;-76
2020/12/15 07:19:37;;;;;;;32.95;16.82;;;;;;;-0.21;85.74;100218.22;2135347;81;21113;-77
2020/12/15 07:22:38;;;;;;;33.98;18.02;;;;;;;-0.22;85.66;100207.44;2139630;82;21579;-77
2020/12/15 07:25:40;;;;;;;25.30;15.13;;;;;;;-0.21;85.66;100205.19;2128045;82;21166;-77
2020/12/15 07:28:47;;;;;;;27.00;15.63;;;;;;;-0.15;85.68;100205.27;2126304;82;21129;-79
2020/12/15 07:31:49;;;;;;;31.00;17.60;;;;;;;-0.10;85.72;100204.05;2122491;82;21197;-79
2020/12/15 07:35:13;;;;;;;30.12;17.52;;;;;;;-0.03;85.75;100206.66;2128424;82;21718;-78
2020/12/15 07:38:14;;;;;;;28.02;16.25;;;;;;;0.05;85.77;100206.14;2124928;82;21169;-79
2020/12/15 07:41:17;;;;;;;30.05;16.12;;;;;;;0.16;85.73;100209.38;2102838;82;21152;-79
2020/12/15 07:44:19;;;;;;;32.15;16.70;;;;;;;0.30;85.72;100212.41;2119994;82;22104;-77
2020/12/15 07:47:21;;;;;;;28.73;17.02;;;;;;;0.50;85.52;100208.51;2124235;82;21192;-76
2020/12/15 07:50:26;;;;;;;30.05;16.97;;;;;;;0.73;85.57;100210.44;2129208;82;21156;-76
2020/12/15 07:53:27;;;;;;;26.80;15.48;;;;;;;0.93;85.35;100205.22;2128902;82;21185;-77
2020/12/15 07:56:30;;;;;;;26.57;14.83;;;;;;;1.08;84.97;100195.50;2124416;82;21919;-77
2020/12/15 07:59:34;;;;;;;27.62;16.25;;;;;;;1.07;84.62;100194.67;2124612;82;21160;-76
2020/12/15 08:02:36;;;;;;;27.25;16.52;;;;;;;1.11;84.31;100201.34;2125322;82;21248;-76
2020/12/15 08:05:38;;;;;;;28.52;16.80;;;;;;;1.29;84.37;100204.94;2128363;82;21137;-76
2020/12/15 08:08:41;;;;;;;31.42;17.48;;;;;;;1.50;84.37;100203.48;2082586;83;21615;-76
2020/12/15 08:11:48;;;;;;;26.62;16.35;;;;;;;1.78;84.34;100212.84;2078017;83;21124;-76
2020/12/15 08:14:49;;;;;;;30.05;17.40;;;;;;;2.12;84.09;100214.37;2136626;81;21112;-77
2020/12/15 08:17:52;;;;;;;26.27;14.98;;;;;;;2.38;84.01;100215.09;2112692;81;21188;-80
2020/12/15 08:20:58;;;;;;;28.90;15.78;;;;;;;2.77;83.76;100221.45;2110659;81;21557;-80
2020/12/15 08:23:59;;;;;;;28.30;16.20;;;;;;;3.11;83.60;100215.33;2133797;81;21138;-78
2020/12/15 08:27:01;;;;;;;26.97;15.58;;;;;;;3.45;82.81;100209.30;2128482;82;21152;-78
2020/12/15 08:30:19;;;;;;;26.55;16.70;;;;;;;3.57;81.36;100215.72;2125202;82;21148;-81
2020/12/15 08:33:31;;;;;;;26.48;16.32;;;;;;;3.65;81.32;100214.30;2125586;82;21525;-78
2020/12/15 08:36:41;;;;;;;26.25;16.17;;;;;;;3.89;81.53;100216.80;2108495;82;21189;-77
2020/12/15 08:39:43;;;;;;;26.75;15.88;;;;;;;4.06;81.27;100215.46;2095955;82;21200;-78
2020/12/15 08:42:47;;;;;;;27.93;15.55;;;;;;;3.97;79.79;100217.86;2082226;83;21228;-76
2020/12/15 08:45:49;;;;;;;28.40;16.27;;;;;;;3.76;80.11;100218.23;2106280;82;21600;-77
2020/12/15 08:48:50;;;;;;;25.80;15.53;;;;;;;3.82;80.62;100225.62;2123643;82;21411;-78
2020/12/15 08:51:54;;;;;;;27.02;16.20;;;;;;;3.90;79.34;100222.39;2120411;82;21180;-77
2020/12/15 08:54:56;;;;;;;29.35;16.50;;;;;;;3.92;80.14;100216.55;2078416;83;21213;-77
2020/12/15 08:58:01;;;;;;;26.60;15.95;;;;;;;4.04;80.02;100220.34;2080193;83;21193;-77
2020/12/15 09:01:02;;;;;;;27.95;15.88;;;;;;;4.18;79.45;100215.30;2072978;84;21145;-81
2020/12/15 09:04:04;;;;;;;26.40;15.93;;;;;;;4.19;79.39;100217.44;2085138;83;21202;-78
2020/12/15 09:07:20;;;;;;;28.90;17.45;;;;;;;4.28;78.93;100224.60;2084429;82;21493;-81
2020/12/15 09:10:21;;;;;;;27.85;17.30;;;;;;;4.37;78.99;100220.39;2126231;82;21194;-80
2020/12/15 09:13:24;;;;;;;28.38;16.45;;;;;;;4.41;78.69;100218.69;2130743;82;21173;-76
2020/12/15 09:16:36;;;;;;;26.30;16.95;;;;;;;4.51;78.58;100221.41;2127430;82;21183;-76
2020/12/15 09:19:43;;;;;;;27.90;16.52;;;;;;;4.64;78.64;100219.43;2105946;82;21515;-76
2020/12/15 09:22:46;;;;;;;27.32;17.12;;;;;;;4.82;78.72;100214.47;2104297;82;21141;-75
2020/12/15 09:25:48;;;;;;;25.97;15.50;;;;;;;5.05;78.40;100205.14;2099765;82;21505;-76
2020/12/15 09:29:01;;;;;;;24.05;14.55;;;;;;;5.26;78.34;100199.36;2127854;82;21139;-75
2020/12/15 09:32:06;;;;;;;24.60;14.93;;;;;;;5.46;78.05;100193.70;2058012;82;21099;-79
2020/12/15 09:35:09;;;;;;;28.17;16.17;;;;;;;5.58;76.98;100190.03;2105051;82;21125;-75
2020/12/15 09:38:17;;;;;;;27.87;16.50;;;;;;;5.48;76.36;100193.59;2101650;82;21167;-75
2020/12/15 09:41:21;;;;;;;28.23;16.07;;;;;;;5.35;76.50;100192.02;2105425;82;21196;-75
2020/12/15 09:44:24;;;;;;;29.02;16.35;;;;;;;5.35;75.65;100193.33;2133184;82;21175;-75
2020/12/15 09:47:29;;;;;;;25.50;16.77;;;;;;;5.37;75.92;100191.87;2116875;82;21194;-75
2020/12/15 09:50:34;;;;;;;26.87;16.67;;;;;;;5.40;76.02;100185.02;2100808;82;21096;-75
2020/12/15 09:53:38;;;;;;;24.25;15.40;;;;;;;5.45;75.51;100192.53;2116900;81;21129;-75
2020/12/15 09:56:46;;;;;;;24.98;15.58;;;;;;;5.54;75.90;100185.98;2079871;82;21265;-74
2020/12/15 09:59:53;;;;;;;24.60;15.25;;;;;;;5.57;75.44;100193.61;2077560;82;21062;-77
2020/12/15 10:02:57;;;;;;;27.58;16.95;;;;;;;5.61;75.33;100189.77;2120276;82;21157;-79
2020/12/15 10:05:58;;;;;;;27.17;16.93;;;;;;;5.68;75.03;100188.73;2126081;82;21152;-74
2020/12/15 10:09:02;;;;;;;24.87;15.65;;;;;;;5.72;74.76;100191.95;2105859;82;21124;-75
2020/12/15 10:12:03;;;;;;;31.85;16.85;;;;;;;5.64;72.40;100185.20;2126638;82;21118;-75
2020/12/15 10:15:06;;;;;;;28.77;17.25;;;;;;;5.56;73.59;100190.64;2106404;82;21208;-74
2020/12/15 10:18:09;;;;;;;27.82;16.70;;;;;;;5.51;73.15;100195.46;2102918;82;21097;-78
2020/12/15 10:21:18;;;;;;;28.02;17.82;;;;;;;5.44;73.78;100194.83;2107874;82;21169;-74
2020/12/15 10:24:21;;;;;;;33.83;17.92;;;;;;;5.26;73.71;100204.62;2090395;83;21183;-74
2020/12/15 10:27:24;;;;;;;25.57;15.28;;;;;;;5.17;72.80;100200.14;2104679;82;21172;-80
2020/12/15 10:30:30;;;;;;;30.97;16.70;;;;;;;5.12;73.58;100197.92;2106687;82;21641;-74
2020/12/15 10:33:36;;;;;;;28.85;17.25;;;;;;;5.12;73.24;100193.12;2128190;82;21097;-79
2020/12/15 10:36:40;;;;;;;32.58;16.93;;;;;;;4.93;73.26;100193.37;2105366;82;21113;-74
2020/12/15 10:39:45;;;;;;;31.93;16.65;;;;;;;4.70;73.29;100187.86;2104746;82;21115;-74
2020/12/15 10:42:50;;;;;;;25.05;15.35;;;;;;;4.48;73.70;100185.71;2107578;82;21177;-75
2020/12/15 10:45:54;;;;;;;28.87;17.00;;;;;;;4.43;74.14;100181.30;2131539;82;21173;-74
2020/12/15 10:48:55;;;;;;;26.73;15.70;;;;;;;4.29;73.74;100183.40;2123458;82;21153;-74
2020/12/15 10:52:02;;;;;;;25.55;14.98;;;;;;;4.27;74.25;100187.45;2105270;82;21167;-77
2020/12/15 10:55:07;;;;;;;27.05;15.63;;;;;;;4.45;74.95;100182.51;2133105;80;21163;-76
2020/12/15 10:58:12;;;;;;;25.62;15.45;;;;;;;4.62;74.56;100182.44;2088409;82;21136;-77
2020/12/15 11:01:16;;;;;;;27.67;15.95;;;;;;;4.55;73.92;100187.83;2105695;82;21177;-74
2020/12/15 11:04:18;;;;;;;29.12;16.30;;;;;;;4.43;74.39;100195.76;2127847;82;21466;-77
2020/12/15 11:07:22;;;;;;;30.88;16.97;;;;;;;4.31;74.01;100189.34;2080795;82;21229;-76
2020/12/15 11:10:25;;;;;;;29.95;16.93;;;;;;;4.18;74.45;100186.41;2128038;82;21623;-74
2020/12/15 11:13:27;;;;;;;30.40;16.82;;;;;;;4.10;74.80;100186.67;2128694;82;21201;-73
2020/12/15 11:16:32;;;;;;;27.98;15.63;;;;;;;4.08;75.28;100184.64;2130693;82;21194;-73
2020/12/15 11:19:38;;;;;;;25.25;15.70;;;;;;;4.08;75.38;100185.95;2129647;82;21193;-74
2020/12/15 11:22:42;;;;;;;28.05;15.50;;;;;;;4.10;75.53;100191.92;2129070;82;21197;-73
2020/12/15 11:25:49;;;;;;;26.12;14.75;;;;;;;4.07;75.30;100180.36;2096053;82;21591;-74
2020/12/15 11:28:51;;;;;;;27.13;16.23;;;;;;;4.03;75.69;100176.66;2034498;84;21110;-79
2020/12/15 11:31:57;;;;;;;29.50;17.52;;;;;;;4.01;75.79;100169.87;2061872;83;21185;-77
2020/12/15 11:35:00;;;;;;;30.45;17.02;;;;;;;4.04;75.86;100176.19;2079994;83;21166;-74
2020/12/15 11:38:04;;;;;;;30.43;15.93;;;;;;;4.03;76.00;100170.59;2084822;83;21516;-77
2020/12/15 11:41:06;;;;;;;25.82;16.17;;;;;;;4.01;75.96;100174.63;2032289;83;21188;-74
2020/12/15 11:44:11;;;;;;;28.15;15.83;;;;;;;3.96;75.90;100179.90;2061332;85;21102;-75
2020/12/15 11:47:12;;;;;;;26.37;15.78;;;;;;;3.83;75.88;100174.81;2081486;83;21539;-73
2020/12/15 11:50:15;;;;;;;30.85;15.60;;;;;;;3.81;76.21;100172.77;2057313;83;21504;-74
2020/12/15 11:53:16;;;;;;;29.37;16.85;;;;;;;3.76;76.28;100171.81;2045619;84;21200;-74
2020/12/15 11:56:18;;;;;;;33.20;17.70;;;;;;;3.76;76.41;100168.36;2076228;83;21135;-73
2020/12/15 11:59:27;;;;;;;33.70;18.40;;;;;;;3.73;76.48;100152.86;2079140;84;22019;-73
2020/12/15 12:02:32;;;;;;;29.80;16.85;;;;;;;3.71;76.59;100152.14;2057890;84;21186;-73
2020/12/15 12:05:36;;;;;;;27.32;15.70;;;;;;;3.73;76.75;100162.05;2059324;83;21597;-74
2020/12/15 12:08:39;;;;;;;27.32;15.43;;;;;;;3.79;76.72;100158.93;2081348;83;21257;-73
2020/12/15 12:11:42;;;;;;;29.60;16.12;;;;;;;3.82;76.68;100145.56;2058258;83;21109;-73
2020/12/15 12:14:44;;;;;;;35.10;18.02;;;;;;;3.88;76.82;100156.88;2079048;83;21225;-74
2020/12/15 12:17:46;;;;;;;29.02;16.32;;;;;;;3.97;76.84;100161.41;2060073;84;21181;-73
2020/12/15 12:20:48;;;;;;;30.15;17.23;;;;;;;4.02;76.65;100148.72;2055015;84;21094;-79
2020/12/15 12:23:52;;;;;;;28.87;16.42;;;;;;;4.03;76.79;100143.84;2044002;84;21098;-73
2020/12/15 12:26:53;;;;;;;34.18;17.48;;;;;;;4.09;76.58;100147.77;2099802;82;21256;-74
2020/12/15 12:29:56;;;;;;;33.45;16.95;;;;;;;4.10;76.53;100145.48;2083668;82;21132;-73
2020/12/15 12:33:00;;;;;;;31.17;17.32;;;;;;;4.09;76.63;100140.38;2078843;82;21111;-73
2020/12/15 12:36:04;;;;;;;30.70;17.40;;;;;;;4.06;76.75;100133.58;2130992;82;21116;-73
2020/12/15 12:39:07;;;;;;;28.92;15.65;;;;;;;4.01;76.65;100136.56;2101470;82;21197;-73
2020/12/15 12:42:08;;;;;;;30.48;16.57;;;;;;;3.98;76.59;100137.30;2101826;82;21107;-73
2020/12/15 12:45:10;;;;;;;28.05;15.60;;;;;;;3.94;76.75;100135.41;2102546;82;21630;-75
2020/12/15 12:48:14;;;;;;;28.25;15.75;;;;;;;3.93;76.79;100128.95;2123516;82;21606;-74
2020/12/15 12:51:17;;;;;;;25.15;14.40;;;;;;;3.95;76.88;100126.56;2103392;82;21562;-73
2020/12/15 12:54:20;;;;;;;26.50;15.80;;;;;;;4.00;76.58;100128.83;2121672;82;21136;-73
2020/12/15 12:57:24;;;;;;;26.65;15.00;;;;;;;4.01;76.48;100136.56;2100296;82;21152;-74
2020/12/15 13:00:27;;;;;;;28.10;15.72;;;;;;;4.04;76.47;100135.00;2079907;82;21151;-79
2020/12/15 13:03:28;;;;;;;32.48;16.95;;;;;;;4.04;75.91;100140.25;2085198;82;21170;-73
2020/12/15 13:06:30;;;;;;;26.85;15.03;;;;;;;4.06;75.85;100136.69;2070387;83;21530;-73
2020/12/15 13:09:33;;;;;;;29.35;15.83;;;;;;;4.07;76.22;100146.22;2074858;84;21541;-73
2020/12/15 13:12:35;;;;;;;26.07;15.03;;;;;;;4.11;76.00;100134.50;2040638;84;21098;-73
2020/12/15 13:15:40;;;;;;;25.43;14.33;;;;;;;4.16;75.68;100120.03;2056409;84;21188;-73
2020/12/15 13:18:43;;;;;;;27.00;15.58;;;;;;;4.19;76.05;100124.20;2003346;84;21115;-74
2020/12/15 13:21:46;;;;;;;28.60;16.37;;;;;;;4.20;75.71;100118.02;2071066;84;21099;-74
2020/12/15 13:24:48;;;;;;;30.25;15.60;;;;;;;4.19;75.39;100113.70;2080009;83;21129;-73
2020/12/15 13:27:50;;;;;;;27.95;14.33;;;;;;;4.15;75.58;100112.30;2064039;84;21163;-76
2020/12/15 13:30:52;;;;;;;25.70;14.15;;;;;;;4.12;75.52;100109.92;2081292;82;21146;-75
2020/12/15 13:33:55;;;;;;;25.00;14.53;;;;;;;4.07;75.46;100107.66;2105178;82;21189;-73
2020/12/15 13:36:56;;;;;;;26.80;14.35;;;;;;;4.02;75.51;100111.13;2125527;82;21524;-77
2020/12/15 13:40:00;;;;;;;27.87;14.83;;;;;;;3.95;75.37;100118.69;2105916;82;21180;-74
2020/12/15 13:43:04;;;;;;;28.92;15.43;;;;;;;3.91;75.27;100139.56;2082824;82;21145;-75
2020/12/15 13:46:10;;;;;;;29.50;17.87;;;;;;;3.89;75.39;100152.00;2107499;82;21113;-73
2020/12/15 13:49:11;;;;;;;29.52;16.37;;;;;;;3.86;75.45;100150.08;2127541;82;21652;-73
2020/12/15 13:52:13;;;;;;;34.75;17.80;;;;;;;3.81;75.20;100143.91;2102530;82;21500;-75
2020/12/15 13:55:14;;;;;;;28.02;13.95;;;;;;;3.82;75.38;100162.14;2124964;82;21137;-73
2020/12/15 13:58:16;;;;;;;29.07;15.53;;;;;;;3.84;75.32;100163.83;2100310;82;21098;-75